sensor_id;sensor_type;location;lat;lon;timestamp;P1;durP1;ratioP1;P2;durP2;ratioP2
42104;SDS011;70664;51.472;5.712;2023-12-20T00:10:47;8.60;;;3.83;;
42104;SDS011;70664;51.472;5.712;2023-12-20T00:51:36;8.90;;;3.78;;
42104;SDS011;70664;51.472;5.712;2023-12-20T00:58:17;8.05;;;3.38;;
42104;SDS011;70664;51.472;5.712;2023-12-20T01:01:58;8.48;;;3.25;;
42104;SDS011;70664;51.472;5.712;2023-12-20T01:05:22;8.65;;;3.38;;
42104;SDS011;70664;51.472;5.712;2023-12-20T01:08:37;6.78;;;3.28;;
42104;SDS011;70664;51.472;5.712;2023-12-20T01:12:23;6.13;;;3.05;;
42104;SDS011;70664;51.472;5.712;2023-12-20T01:21:43;10.13;;;3.60;;
42104;SDS011;70664;51.472;5.712;2023-12-20T01:24:50;7.25;;;3.15;;
42104;SDS011;70664;51.472;5.712;2023-12-20T01:28:11;5.97;;;2.90;;
42104;SDS011;70664;51.472;5.712;2023-12-20T01:38:01;6.25;;;2.70;;
42104;SDS011;70664;51.472;5.712;2023-12-20T01:40:29;6.43;;;2.78;;
42104;SDS011;70664;51.472;5.712;2023-12-20T01:43:29;6.93;;;2.70;;
42104;SDS011;70664;51.472;5.712;2023-12-20T01:57:09;6.00;;;2.75;;
42104;SDS011;70664;51.472;5.712;2023-12-20T02:00:28;5.28;;;2.72;;
42104;SDS011;70664;51.472;5.712;2023-12-20T02:03:31;5.95;;;2.47;;
42104;SDS011;70664;51.472;5.712;2023-12-20T02:06:42;6.63;;;2.30;;
42104;SDS011;70664;51.472;5.712;2023-12-20T02:09:38;6.28;;;2.70;;
42104;SDS011;70664;51.472;5.712;2023-12-20T02:12:44;5.78;;;2.60;;
42104;SDS011;70664;51.472;5.712;2023-12-20T02:19:49;6.85;;;2.65;;
42104;SDS011;70664;51.472;5.712;2023-12-20T02:22:31;5.65;;;2.67;;
42104;SDS011;70664;51.472;5.712;2023-12-20T02:25:41;5.32;;;2.38;;
42104;SDS011;70664;51.472;5.712;2023-12-20T02:32:28;4.20;;;2.35;;
42104;SDS011;70664;51.472;5.712;2023-12-20T02:35:35;5.65;;;2.10;;
42104;SDS011;70664;51.472;5.712;2023-12-20T02:38:12;7.82;;;2.60;;
42104;SDS011;70664;51.472;5.712;2023-12-20T02:40:55;6.63;;;2.58;;
42104;SDS011;70664;51.472;5.712;2023-12-20T02:43:31;5.57;;;2.30;;
42104;SDS011;70664;51.472;5.712;2023-12-20T02:46:37;4.88;;;2.30;;
42104;SDS011;70664;51.472;5.712;2023-12-20T02:49:15;6.40;;;2.70;;
42104;SDS011;70664;51.472;5.712;2023-12-20T02:52:06;3.90;;;2.00;;
42104;SDS011;70664;51.472;5.712;2023-12-20T03:02:03;5.68;;;2.50;;
42104;SDS011;70664;51.472;5.712;2023-12-20T03:05:18;5.63;;;2.40;;
42104;SDS011;70664;51.472;5.712;2023-12-20T03:18:39;6.47;;;2.38;;
42104;SDS011;70664;51.472;5.712;2023-12-20T03:21:43;5.13;;;2.13;;
42104;SDS011;70664;51.472;5.712;2023-12-20T03:24:55;4.32;;;2.35;;
42104;SDS011;70664;51.472;5.712;2023-12-20T03:27:24;5.15;;;2.08;;
42104;SDS011;70664;51.472;5.712;2023-12-20T03:30:17;7.22;;;2.70;;
42104;SDS011;70664;51.472;5.712;2023-12-20T03:33:23;4.55;;;2.15;;
42104;SDS011;70664;51.472;5.712;2023-12-20T03:36:16;6.85;;;2.60;;
42104;SDS011;70664;51.472;5.712;2023-12-20T03:39:14;4.30;;;2.10;;
42104;SDS011;70664;51.472;5.712;2023-12-20T03:42:14;4.72;;;2.03;;
42104;SDS011;70664;51.472;5.712;2023-12-20T03:45:06;4.70;;;2.28;;
42104;SDS011;70664;51.472;5.712;2023-12-20T03:48:13;6.85;;;2.72;;
42104;SDS011;70664;51.472;5.712;2023-12-20T03:51:33;4.10;;;2.00;;
42104;SDS011;70664;51.472;5.712;2023-12-20T03:54:40;4.95;;;2.13;;
42104;SDS011;70664;51.472;5.712;2023-12-20T03:57:18;3.75;;;2.15;;
42104;SDS011;70664;51.472;5.712;2023-12-20T04:00:14;4.07;;;2.05;;
42104;SDS011;70664;51.472;5.712;2023-12-20T04:03:44;5.32;;;2.10;;
42104;SDS011;70664;51.472;5.712;2023-12-20T04:06:45;3.92;;;2.13;;
42104;SDS011;70664;51.472;5.712;2023-12-20T04:10:02;4.53;;;2.10;;
42104;SDS011;70664;51.472;5.712;2023-12-20T04:13:24;4.13;;;1.80;;
42104;SDS011;70664;51.472;5.712;2023-12-20T04:16:40;5.72;;;1.98;;
42104;SDS011;70664;51.472;5.712;2023-12-20T04:19:21;5.53;;;2.40;;
42104;SDS011;70664;51.472;5.712;2023-12-20T04:22:51;6.25;;;2.50;;
42104;SDS011;70664;51.472;5.712;2023-12-20T04:25:26;4.05;;;1.98;;
42104;SDS011;70664;51.472;5.712;2023-12-20T04:28:47;5.05;;;2.22;;
42104;SDS011;70664;51.472;5.712;2023-12-20T04:31:19;5.05;;;2.10;;
42104;SDS011;70664;51.472;5.712;2023-12-20T04:33:51;4.47;;;1.95;;
42104;SDS011;70664;51.472;5.712;2023-12-20T04:37:06;4.85;;;2.10;;
42104;SDS011;70664;51.472;5.712;2023-12-20T04:39:54;4.20;;;2.03;;
42104;SDS011;70664;51.472;5.712;2023-12-20T04:43:05;4.43;;;1.98;;
42104;SDS011;70664;51.472;5.712;2023-12-20T04:46:04;6.00;;;2.17;;
42104;SDS011;70664;51.472;5.712;2023-12-20T04:52:49;5.55;;;2.03;;
42104;SDS011;70664;51.472;5.712;2023-12-20T04:59:39;3.97;;;1.75;;
42104;SDS011;70664;51.472;5.712;2023-12-20T05:13:44;4.28;;;1.98;;
42104;SDS011;70664;51.472;5.712;2023-12-20T05:16:18;5.43;;;1.90;;
42104;SDS011;70664;51.472;5.712;2023-12-20T05:20:23;4.32;;;1.95;;
42104;SDS011;70664;51.472;5.712;2023-12-20T05:31:02;6.35;;;1.88;;
42104;SDS011;70664;51.472;5.712;2023-12-20T05:46:05;4.32;;;1.90;;
42104;SDS011;70664;51.472;5.712;2023-12-20T06:03:36;6.60;;;2.08;;
42104;SDS011;70664;51.472;5.712;2023-12-20T07:04:31;3.70;;;1.67;;
42104;SDS011;70664;51.472;5.712;2023-12-20T08:02:33;5.28;;;2.00;;
42104;SDS011;70664;51.472;5.712;2023-12-20T09:29:32;5.18;;;1.80;;
42104;SDS011;70664;51.472;5.712;2023-12-20T09:56:01;5.20;;;1.73;;
42104;SDS011;70664;51.472;5.712;2023-12-20T10:25:38;9.30;;;1.73;;
42104;SDS011;70664;51.472;5.712;2023-12-20T10:58:41;8.25;;;1.92;;
42104;SDS011;70664;51.472;5.712;2023-12-20T11:09:37;7.75;;;2.05;;
42104;SDS011;70664;51.472;5.712;2023-12-20T11:21:01;5.93;;;1.90;;
42104;SDS011;70664;51.472;5.712;2023-12-20T11:27:24;10.25;;;1.70;;
42104;SDS011;70664;51.472;5.712;2023-12-20T11:45:28;7.97;;;1.80;;
42104;SDS011;70664;51.472;5.712;2023-12-20T12:03:01;6.55;;;1.92;;
42104;SDS011;70664;51.472;5.712;2023-12-20T12:05:46;7.35;;;1.52;;
42104;SDS011;70664;51.472;5.712;2023-12-20T12:08:38;6.97;;;1.85;;
42104;SDS011;70664;51.472;5.712;2023-12-20T12:15:19;5.97;;;1.90;;
42104;SDS011;70664;51.472;5.712;2023-12-20T12:25:41;4.95;;;1.38;;
42104;SDS011;70664;51.472;5.712;2023-12-20T12:32:05;5.68;;;2.22;;
42104;SDS011;70664;51.472;5.712;2023-12-20T12:34:35;5.20;;;1.50;;
42104;SDS011;70664;51.472;5.712;2023-12-20T12:37:42;4.45;;;1.50;;
42104;SDS011;70664;51.472;5.712;2023-12-20T12:40:12;5.78;;;1.50;;
42104;SDS011;70664;51.472;5.712;2023-12-20T12:42:41;5.13;;;1.70;;
42104;SDS011;70664;51.472;5.712;2023-12-20T12:45:12;6.07;;;1.60;;
42104;SDS011;70664;51.472;5.712;2023-12-20T12:48:19;4.45;;;1.60;;
42104;SDS011;70664;51.472;5.712;2023-12-20T12:54:08;4.45;;;1.52;;
42104;SDS011;70664;51.472;5.712;2023-12-20T12:56:35;3.55;;;1.50;;
42104;SDS011;70664;51.472;5.712;2023-12-20T12:59:04;6.25;;;1.50;;
42104;SDS011;70664;51.472;5.712;2023-12-20T13:01:51;5.78;;;1.33;;
42104;SDS011;70664;51.472;5.712;2023-12-20T13:07:54;4.32;;;1.70;;
42104;SDS011;70664;51.472;5.712;2023-12-20T13:10:23;3.65;;;1.55;;
42104;SDS011;70664;51.472;5.712;2023-12-20T13:13:07;6.40;;;1.50;;
42104;SDS011;70664;51.472;5.712;2023-12-20T13:16:01;5.80;;;1.60;;
42104;SDS011;70664;51.472;5.712;2023-12-20T13:25:35;5.35;;;1.30;;
42104;SDS011;70664;51.472;5.712;2023-12-20T13:28:06;3.00;;;1.35;;
42104;SDS011;70664;51.472;5.712;2023-12-20T13:31:19;3.05;;;1.27;;
42104;SDS011;70664;51.472;5.712;2023-12-20T13:33:45;3.28;;;1.52;;
42104;SDS011;70664;51.472;5.712;2023-12-20T13:36:11;4.65;;;1.50;;
42104;SDS011;70664;51.472;5.712;2023-12-20T13:38:48;6.97;;;1.60;;
42104;SDS011;70664;51.472;5.712;2023-12-20T13:45:03;4.60;;;1.55;;
42104;SDS011;70664;51.472;5.712;2023-12-20T13:47:41;5.03;;;1.48;;
42104;SDS011;70664;51.472;5.712;2023-12-20T13:50:07;4.07;;;1.58;;
42104;SDS011;70664;51.472;5.712;2023-12-20T13:52:34;5.40;;;1.42;;
42104;SDS011;70664;51.472;5.712;2023-12-20T13:55:04;4.88;;;1.50;;
42104;SDS011;70664;51.472;5.712;2023-12-20T13:57:53;3.40;;;1.35;;
42104;SDS011;70664;51.472;5.712;2023-12-20T14:01:19;4.22;;;1.58;;
42104;SDS011;70664;51.472;5.712;2023-12-20T14:03:45;4.18;;;1.45;;
42104;SDS011;70664;51.472;5.712;2023-12-20T14:06:33;3.15;;;1.00;;
42104;SDS011;70664;51.472;5.712;2023-12-20T14:08:59;2.85;;;1.25;;
42104;SDS011;70664;51.472;5.712;2023-12-20T14:11:46;3.50;;;1.30;;
42104;SDS011;70664;51.472;5.712;2023-12-20T14:14:11;4.88;;;1.20;;
42104;SDS011;70664;51.472;5.712;2023-12-20T14:16:37;3.25;;;1.40;;
42104;SDS011;70664;51.472;5.712;2023-12-20T14:19:03;3.05;;;1.23;;
42104;SDS011;70664;51.472;5.712;2023-12-20T14:21:38;2.63;;;1.20;;
42104;SDS011;70664;51.472;5.712;2023-12-20T14:28:12;2.92;;;1.17;;
42104;SDS011;70664;51.472;5.712;2023-12-20T14:30:41;2.40;;;1.10;;
42104;SDS011;70664;51.472;5.712;2023-12-20T14:33:10;4.95;;;1.50;;
42104;SDS011;70664;51.472;5.712;2023-12-20T14:35:41;3.38;;;1.48;;
42104;SDS011;70664;51.472;5.712;2023-12-20T14:38:35;3.05;;;1.30;;
42104;SDS011;70664;51.472;5.712;2023-12-20T14:41:01;2.50;;;1.10;;
42104;SDS011;70664;51.472;5.712;2023-12-20T14:43:29;2.80;;;1.25;;
42104;SDS011;70664;51.472;5.712;2023-12-20T14:48:57;3.40;;;1.15;;
42104;SDS011;70664;51.472;5.712;2023-12-20T14:51:23;3.97;;;1.50;;
42104;SDS011;70664;51.472;5.712;2023-12-20T14:54:27;2.47;;;1.15;;
42104;SDS011;70664;51.472;5.712;2023-12-20T14:57:08;3.30;;;1.40;;
42104;SDS011;70664;51.472;5.712;2023-12-20T15:10:27;3.08;;;1.23;;
42104;SDS011;70664;51.472;5.712;2023-12-20T15:12:53;4.38;;;1.23;;
42104;SDS011;70664;51.472;5.712;2023-12-20T15:18:01;3.17;;;1.48;;
42104;SDS011;70664;51.472;5.712;2023-12-20T15:24:09;4.00;;;1.48;;
42104;SDS011;70664;51.472;5.712;2023-12-20T15:27:29;2.63;;;1.20;;
42104;SDS011;70664;51.472;5.712;2023-12-20T15:29:54;3.53;;;1.23;;
42104;SDS011;70664;51.472;5.712;2023-12-20T15:32:21;4.65;;;1.40;;
42104;SDS011;70664;51.472;5.712;2023-12-20T15:34:47;3.88;;;1.38;;
42104;SDS011;70664;51.472;5.712;2023-12-20T15:37:14;3.95;;;1.52;;
42104;SDS011;70664;51.472;5.712;2023-12-20T15:39:43;5.95;;;1.30;;
42104;SDS011;70664;51.472;5.712;2023-12-20T15:42:09;5.15;;;1.60;;
42104;SDS011;70664;51.472;5.712;2023-12-20T15:44:38;7.30;;;1.63;;
42104;SDS011;70664;51.472;5.712;2023-12-20T15:47:16;6.15;;;1.45;;
42104;SDS011;70664;51.472;5.712;2023-12-20T15:49:42;3.65;;;1.20;;
42104;SDS011;70664;51.472;5.712;2023-12-20T15:52:18;4.57;;;1.30;;
42104;SDS011;70664;51.472;5.712;2023-12-20T15:54:44;3.78;;;1.25;;
42104;SDS011;70664;51.472;5.712;2023-12-20T15:57:11;4.00;;;1.20;;
42104;SDS011;70664;51.472;5.712;2023-12-20T15:59:37;4.28;;;1.38;;
42104;SDS011;70664;51.472;5.712;2023-12-20T16:02:03;3.97;;;1.27;;
42104;SDS011;70664;51.472;5.712;2023-12-20T16:04:29;6.50;;;1.48;;
42104;SDS011;70664;51.472;5.712;2023-12-20T16:06:56;3.00;;;1.20;;
42104;SDS011;70664;51.472;5.712;2023-12-20T16:09:25;5.00;;;1.42;;
42104;SDS011;70664;51.472;5.712;2023-12-20T16:11:50;3.70;;;1.60;;
42104;SDS011;70664;51.472;5.712;2023-12-20T16:14:19;3.78;;;1.10;;
42104;SDS011;70664;51.472;5.712;2023-12-20T16:16:46;3.95;;;1.48;;
42104;SDS011;70664;51.472;5.712;2023-12-20T16:19:21;3.20;;;1.48;;
42104;SDS011;70664;51.472;5.712;2023-12-20T16:21:53;6.50;;;1.40;;
42104;SDS011;70664;51.472;5.712;2023-12-20T16:24:55;4.40;;;1.20;;
42104;SDS011;70664;51.472;5.712;2023-12-20T16:27:20;3.42;;;1.27;;
42104;SDS011;70664;51.472;5.712;2023-12-20T16:29:46;117.65;;;21.30;;
42104;SDS011;70664;51.472;5.712;2023-12-20T16:32:12;102.57;;;20.02;;
42104;SDS011;70664;51.472;5.712;2023-12-20T16:34:38;75.95;;;15.98;;
42104;SDS011;70664;51.472;5.712;2023-12-20T16:37:04;73.03;;;14.57;;
42104;SDS011;70664;51.472;5.712;2023-12-20T16:39:33;71.53;;;14.75;;
42104;SDS011;70664;51.472;5.712;2023-12-20T16:46:01;59.78;;;13.77;;
42104;SDS011;70664;51.472;5.712;2023-12-20T16:55:43;62.92;;;12.43;;
42104;SDS011;70664;51.472;5.712;2023-12-20T16:58:10;65.10;;;12.80;;
42104;SDS011;70664;51.472;5.712;2023-12-20T17:00:43;54.97;;;11.98;;
42104;SDS011;70664;51.472;5.712;2023-12-20T17:03:16;56.83;;;12.90;;
42104;SDS011;70664;51.472;5.712;2023-12-20T17:05:45;57.28;;;12.13;;
42104;SDS011;70664;51.472;5.712;2023-12-20T17:08:11;50.08;;;11.52;;
42104;SDS011;70664;51.472;5.712;2023-12-20T17:10:36;54.13;;;12.05;;
42104;SDS011;70664;51.472;5.712;2023-12-20T17:13:05;66.00;;;14.50;;
42104;SDS011;70664;51.472;5.712;2023-12-20T17:16:12;55.88;;;12.82;;
42104;SDS011;70664;51.472;5.712;2023-12-20T17:22:59;66.03;;;15.43;;
42104;SDS011;70664;51.472;5.712;2023-12-20T17:25:50;56.55;;;14.25;;
42104;SDS011;70664;51.472;5.712;2023-12-20T17:28:54;53.70;;;13.43;;
42104;SDS011;70664;51.472;5.712;2023-12-20T17:31:42;63.60;;;14.27;;
42104;SDS011;70664;51.472;5.712;2023-12-20T17:37:21;47.67;;;12.40;;
42104;SDS011;70664;51.472;5.712;2023-12-20T17:39:47;53.45;;;12.80;;
42104;SDS011;70664;51.472;5.712;2023-12-20T17:42:53;49.10;;;11.65;;
42104;SDS011;70664;51.472;5.712;2023-12-20T17:45:20;56.28;;;12.80;;
42104;SDS011;70664;51.472;5.712;2023-12-20T17:47:49;48.65;;;11.98;;
42104;SDS011;70664;51.472;5.712;2023-12-20T17:54:05;48.63;;;11.52;;
42104;SDS011;70664;51.472;5.712;2023-12-20T18:00:31;47.33;;;11.65;;
42104;SDS011;70664;51.472;5.712;2023-12-20T18:03:00;44.08;;;11.32;;
42104;SDS011;70664;51.472;5.712;2023-12-20T18:06:05;39.35;;;10.73;;
42104;SDS011;70664;51.472;5.712;2023-12-20T18:09:03;40.33;;;10.30;;
42104;SDS011;70664;51.472;5.712;2023-12-20T18:11:29;43.85;;;10.90;;
42104;SDS011;70664;51.472;5.712;2023-12-20T18:14:01;36.45;;;10.32;;
42104;SDS011;70664;51.472;5.712;2023-12-20T18:16:35;40.53;;;10.15;;
42104;SDS011;70664;51.472;5.712;2023-12-20T18:19:05;33.95;;;9.88;;
42104;SDS011;70664;51.472;5.712;2023-12-20T18:21:31;36.88;;;9.70;;
42104;SDS011;70664;51.472;5.712;2023-12-20T18:24:10;36.72;;;10.13;;
42104;SDS011;70664;51.472;5.712;2023-12-20T18:26:39;33.75;;;9.35;;
42104;SDS011;70664;51.472;5.712;2023-12-20T18:29:19;38.92;;;9.60;;
42104;SDS011;70664;51.472;5.712;2023-12-20T18:32:02;31.15;;;9.20;;
42104;SDS011;70664;51.472;5.712;2023-12-20T18:39:11;40.97;;;9.45;;
42104;SDS011;70664;51.472;5.712;2023-12-20T18:45:42;33.22;;;8.90;;
42104;SDS011;70664;51.472;5.712;2023-12-20T19:00:32;29.35;;;7.72;;
42104;SDS011;70664;51.472;5.712;2023-12-20T19:03:37;23.00;;;7.78;;
42104;SDS011;70664;51.472;5.712;2023-12-20T19:13:58;28.38;;;7.47;;
42104;SDS011;70664;51.472;5.712;2023-12-20T19:17:26;30.63;;;7.55;;
42104;SDS011;70664;51.472;5.712;2023-12-20T19:20:40;25.60;;;7.38;;
42104;SDS011;70664;51.472;5.712;2023-12-20T19:23:32;25.58;;;7.68;;
42104;SDS011;70664;51.472;5.712;2023-12-20T19:26:02;27.70;;;7.63;;
42104;SDS011;70664;51.472;5.712;2023-12-20T19:28:29;25.33;;;6.97;;
42104;SDS011;70664;51.472;5.712;2023-12-20T19:30:55;23.75;;;7.03;;
42104;SDS011;70664;51.472;5.712;2023-12-20T19:33:59;25.47;;;6.73;;
42104;SDS011;70664;51.472;5.712;2023-12-20T19:36:40;24.33;;;7.53;;
42104;SDS011;70664;51.472;5.712;2023-12-20T19:40:26;23.50;;;7.22;;
42104;SDS011;70664;51.472;5.712;2023-12-20T19:43:46;22.30;;;6.68;;
42104;SDS011;70664;51.472;5.712;2023-12-20T19:47:14;20.75;;;6.72;;
42104;SDS011;70664;51.472;5.712;2023-12-20T19:50:32;20.75;;;6.47;;
42104;SDS011;70664;51.472;5.712;2023-12-20T19:57:05;22.02;;;6.78;;
42104;SDS011;70664;51.472;5.712;2023-12-20T20:00:42;18.90;;;6.40;;
42104;SDS011;70664;51.472;5.712;2023-12-20T20:06:37;19.98;;;6.55;;
42104;SDS011;70664;51.472;5.712;2023-12-20T20:10:05;17.80;;;5.55;;
42104;SDS011;70664;51.472;5.712;2023-12-20T20:13:28;19.17;;;6.07;;
42104;SDS011;70664;51.472;5.712;2023-12-20T20:17:40;18.85;;;6.50;;
42104;SDS011;70664;51.472;5.712;2023-12-20T20:24:28;19.42;;;5.75;;
42104;SDS011;70664;51.472;5.712;2023-12-20T20:35:23;17.50;;;5.03;;
42104;SDS011;70664;51.472;5.712;2023-12-20T20:41:20;16.05;;;5.03;;
42104;SDS011;70664;51.472;5.712;2023-12-20T20:47:59;15.15;;;4.82;;
42104;SDS011;70664;51.472;5.712;2023-12-20T20:59:08;18.92;;;4.68;;
42104;SDS011;70664;51.472;5.712;2023-12-20T21:32:28;13.68;;;5.15;;
42104;SDS011;70664;51.472;5.712;2023-12-20T21:35:17;21.15;;;5.18;;
42104;SDS011;70664;51.472;5.712;2023-12-20T21:38:44;12.80;;;4.75;;
42104;SDS011;70664;51.472;5.712;2023-12-20T21:41:34;16.98;;;4.63;;
42104;SDS011;70664;51.472;5.712;2023-12-20T21:44:00;14.27;;;4.53;;
42104;SDS011;70664;51.472;5.712;2023-12-20T21:46:33;17.50;;;5.05;;
42104;SDS011;70664;51.472;5.712;2023-12-20T21:49:02;13.90;;;4.80;;
42104;SDS011;70664;51.472;5.712;2023-12-20T21:52:03;14.37;;;4.90;;
42104;SDS011;70664;51.472;5.712;2023-12-20T21:54:29;14.68;;;5.03;;
42104;SDS011;70664;51.472;5.712;2023-12-20T21:57:06;13.43;;;4.32;;
42104;SDS011;70664;51.472;5.712;2023-12-20T21:59:41;13.65;;;4.68;;
42104;SDS011;70664;51.472;5.712;2023-12-20T22:02:27;11.32;;;4.60;;
42104;SDS011;70664;51.472;5.712;2023-12-20T22:05:19;10.77;;;4.10;;
42104;SDS011;70664;51.472;5.712;2023-12-20T22:08:07;11.85;;;4.07;;
42104;SDS011;70664;51.472;5.712;2023-12-20T22:10:38;17.17;;;4.97;;
42104;SDS011;70664;51.472;5.712;2023-12-20T22:13:04;11.45;;;4.45;;
42104;SDS011;70664;51.472;5.712;2023-12-20T22:15:30;12.05;;;4.07;;
42104;SDS011;70664;51.472;5.712;2023-12-20T22:17:56;11.68;;;4.70;;
42104;SDS011;70664;51.472;5.712;2023-12-20T22:20:30;11.40;;;4.20;;
42104;SDS011;70664;51.472;5.712;2023-12-20T22:22:56;11.50;;;4.63;;
42104;SDS011;70664;51.472;5.712;2023-12-20T22:25:27;14.60;;;4.88;;
42104;SDS011;70664;51.472;5.712;2023-12-20T22:27:53;12.38;;;4.22;;
42104;SDS011;70664;51.472;5.712;2023-12-20T22:30:22;10.80;;;4.50;;
42104;SDS011;70664;51.472;5.712;2023-12-20T22:32:57;10.30;;;4.10;;
42104;SDS011;70664;51.472;5.712;2023-12-20T22:42:54;11.00;;;4.20;;
42104;SDS011;70664;51.472;5.712;2023-12-20T22:45:29;12.02;;;3.88;;
42104;SDS011;70664;51.472;5.712;2023-12-20T22:47:59;12.60;;;4.18;;
42104;SDS011;70664;51.472;5.712;2023-12-20T22:50:29;9.52;;;3.75;;
42104;SDS011;70664;51.472;5.712;2023-12-20T22:52:55;10.05;;;4.10;;
42104;SDS011;70664;51.472;5.712;2023-12-20T22:55:20;11.35;;;4.15;;
42104;SDS011;70664;51.472;5.712;2023-12-20T22:57:51;10.23;;;3.65;;
42104;SDS011;70664;51.472;5.712;2023-12-20T23:00:19;10.57;;;3.53;;
42104;SDS011;70664;51.472;5.712;2023-12-20T23:02:52;9.98;;;4.07;;
42104;SDS011;70664;51.472;5.712;2023-12-20T23:05:21;9.25;;;3.50;;
42104;SDS011;70664;51.472;5.712;2023-12-20T23:07:50;12.60;;;3.88;;
42104;SDS011;70664;51.472;5.712;2023-12-20T23:10:16;12.02;;;3.92;;
42104;SDS011;70664;51.472;5.712;2023-12-20T23:12:47;9.45;;;3.70;;
42104;SDS011;70664;51.472;5.712;2023-12-20T23:15:14;10.18;;;3.80;;
42104;SDS011;70664;51.472;5.712;2023-12-20T23:20:36;7.75;;;2.92;;
42104;SDS011;70664;51.472;5.712;2023-12-20T23:23:02;11.20;;;3.95;;
42104;SDS011;70664;51.472;5.712;2023-12-20T23:25:29;9.70;;;3.50;;
42104;SDS011;70664;51.472;5.712;2023-12-20T23:27:55;16.25;;;4.03;;
42104;SDS011;70664;51.472;5.712;2023-12-20T23:30:21;11.10;;;3.60;;
42104;SDS011;70664;51.472;5.712;2023-12-20T23:32:47;9.75;;;3.53;;
42104;SDS011;70664;51.472;5.712;2023-12-20T23:35:12;10.23;;;3.35;;
42104;SDS011;70664;51.472;5.712;2023-12-20T23:37:38;10.18;;;3.45;;
42104;SDS011;70664;51.472;5.712;2023-12-20T23:40:04;10.95;;;3.80;;
42104;SDS011;70664;51.472;5.712;2023-12-20T23:42:31;9.43;;;3.60;;
42104;SDS011;70664;51.472;5.712;2023-12-20T23:44:57;10.40;;;3.33;;
42104;SDS011;70664;51.472;5.712;2023-12-20T23:47:23;8.68;;;3.30;;
42104;SDS011;70664;51.472;5.712;2023-12-20T23:49:49;11.45;;;3.58;;
42104;SDS011;70664;51.472;5.712;2023-12-20T23:52:14;7.95;;;3.10;;
42104;SDS011;70664;51.472;5.712;2023-12-20T23:54:43;8.35;;;3.30;;
42104;SDS011;70664;51.472;5.712;2023-12-20T23:57:14;8.70;;;3.33;;
42104;SDS011;70664;51.472;5.712;2023-12-20T23:59:43;8.30;;;3.47;;
